createdAt,value
2018-03-04T00:04:09.700Z,94280.47
2018-03-04T00:06:38.066Z,94284.08
2018-03-04T00:09:06.729Z,94277.01
2018-03-04T00:11:35.104Z,94286.61
2018-03-04T00:14:04.496Z,94287.02
2018-03-04T00:16:33.048Z,94288.38
2018-03-04T00:19:02.584Z,94291.84
2018-03-04T00:21:31.508Z,94286.61
2018-03-04T00:24:05.857Z,94287.22
2018-03-04T00:26:34.313Z,94282.89
2018-03-04T00:31:59.011Z,94287.11
2018-03-04T00:34:27.719Z,94285.84
2018-03-04T00:36:57.393Z,94295.70
2018-03-04T00:39:26.065Z,94292.09
2018-03-04T00:42:01.464Z,94292.96
2018-03-04T00:44:31.058Z,94296.97
2018-03-04T00:47:02.922Z,94288.95
2018-03-04T00:49:42.729Z,94287.02
2018-03-04T00:52:14.394Z,94292.50
2018-03-04T07:09:34.186Z,94327.73
2018-03-04T07:46:44.552Z,94347.23
2018-03-04T07:49:13.332Z,94340.23
2018-03-04T07:51:41.683Z,94335.66
2018-03-04T07:54:10.099Z,94337.80
2018-03-04T07:56:38.461Z,94334.79
2018-03-04T07:59:06.832Z,94326.34
2018-03-04T08:01:35.286Z,94320.45
2018-03-04T08:04:03.630Z,94322.65
2018-03-04T08:06:32.046Z,94322.69
2018-03-04T08:09:00.419Z,94324.48
2018-03-04T08:11:28.819Z,94319.59
2018-03-04T08:13:57.173Z,94320.10
2018-03-04T08:16:25.642Z,94318.17
2018-03-04T08:18:54.011Z,94319.44
2018-03-04T08:21:22.360Z,94317.20
2018-03-04T08:23:50.828Z,94316.36
2018-03-04T08:26:31.034Z,94320.83
2018-03-04T08:28:59.427Z,94322.23
2018-03-04T08:31:27.746Z,94310.98
2018-03-04T08:33:56.175Z,94305.69
2018-03-04T08:36:24.572Z,94300.87
2018-03-04T08:38:52.923Z,94309.05
2018-03-04T08:41:21.305Z,94313.09
2018-03-04T08:43:49.681Z,94305.78
2018-03-04T08:46:18.078Z,94292.68
2018-03-04T08:48:46.460Z,94284.89
2018-03-04T08:51:14.837Z,94291.16
2018-03-04T08:53:43.211Z,94287.82
2018-03-04T08:56:11.554Z,94293.70
2018-03-04T08:58:39.969Z,94291.19
2018-03-04T09:01:08.356Z,94288.92
2018-03-04T09:03:36.735Z,94294.94
2018-03-04T09:06:05.111Z,94292.70
2018-03-04T09:08:33.522Z,94298.45
2018-03-04T09:11:02.587Z,94292.64
2018-03-04T09:13:30.924Z,94288.67
2018-03-04T09:15:59.299Z,94286.13
2018-03-04T09:18:27.653Z,94276.73
2018-03-04T09:20:56.021Z,94277.72
2018-03-04T09:23:24.534Z,94280.55
2018-03-04T09:25:52.949Z,94275.31
2018-03-04T09:28:21.351Z,94277.37
2018-03-04T09:30:49.878Z,94269.55
2018-03-04T09:33:18.300Z,94268.74
2018-03-04T09:35:46.664Z,94267.28
2018-03-04T09:38:15.044Z,94263.28
2018-03-04T09:40:43.411Z,94262.70
2018-03-04T09:43:11.874Z,94261.51
2018-03-04T09:45:40.279Z,94259.53
2018-03-04T09:48:08.647Z,94253.45
2018-03-04T09:50:37.004Z,94250.69
2018-03-04T09:53:05.404Z,94253.55
2018-03-04T09:55:33.784Z,94252.97
2018-03-04T09:58:02.202Z,94255.84
2018-03-04T10:00:30.660Z,94253.95
2018-03-04T10:02:58.987Z,94255.16
2018-03-04T10:05:27.396Z,94255.72
2018-03-04T10:07:55.780Z,94249.34
2018-03-04T10:10:24.126Z,94257.17
2018-03-04T10:12:52.480Z,94258.34
2018-03-04T10:15:20.856Z,94250.02
2018-03-04T10:17:49.202Z,94243.59
2018-03-04T10:20:19.855Z,94236.81
2018-03-04T10:22:48.314Z,94238.67
2018-03-04T10:25:16.689Z,94233.55
2018-03-04T10:27:45.068Z,94220.19
2018-03-04T10:30:13.419Z,94218.73
2018-03-04T10:32:41.775Z,94221.27
2018-03-04T10:35:10.199Z,94224.55
2018-03-04T10:37:38.551Z,94223.63
2018-03-04T10:40:06.957Z,94228.14
2018-03-04T10:42:35.331Z,94221.66
2018-03-04T10:45:03.675Z,94224.20
2018-03-04T10:47:32.043Z,94214.56
2018-03-04T10:50:00.378Z,94206.30
2018-03-04T10:52:28.721Z,94197.34
2018-03-04T10:54:57.062Z,94210.52
2018-03-04T10:57:25.432Z,94196.66
2018-03-04T10:59:53.812Z,94190.75
2018-03-04T11:02:24.093Z,94183.66
2018-03-04T11:04:52.427Z,94185.33
2018-03-04T11:07:20.763Z,94177.07
2018-03-04T11:09:49.134Z,94171.87
2018-03-04T11:12:17.547Z,94170.17
2018-03-04T11:14:45.894Z,94170.52
2018-03-04T11:17:14.261Z,94163.59
2018-03-04T11:19:42.774Z,94165.46
2018-03-04T11:22:11.107Z,94165.33
2018-03-04T11:24:39.506Z,94152.48
2018-03-04T11:27:07.843Z,94140.45
2018-03-04T11:29:36.263Z,94142.79
2018-03-04T11:32:04.644Z,94133.23
2018-03-04T11:34:33.039Z,94128.62
2018-03-04T11:37:01.383Z,94124.42
2018-03-04T11:39:30.714Z,94123.47
2018-03-04T11:41:59.036Z,94127.96
2018-03-04T11:44:27.388Z,94127.12
2018-03-04T11:46:55.721Z,94124.06
2018-03-04T11:49:24.145Z,94121.11
2018-03-04T11:51:52.502Z,94117.54
2018-03-04T11:54:20.859Z,94115.34
2018-03-04T11:56:49.204Z,94115.03
2018-03-04T11:59:17.576Z,94118.16
2018-03-04T12:01:45.947Z,94108.01
2018-03-04T12:04:14.309Z,94103.31
2018-03-04T12:06:42.658Z,94104.67
2018-03-04T12:09:11.029Z,94106.29
2018-03-04T12:11:39.404Z,94106.81
2018-03-04T12:14:07.755Z,94107.41
2018-03-04T12:16:36.114Z,94104.05
2018-03-04T12:19:04.459Z,94111.84
2018-03-04T12:21:32.934Z,94102.42
2018-03-04T12:24:01.400Z,94104.69
2018-03-04T12:26:29.714Z,94111.48
2018-03-04T12:28:58.080Z,94112.29
2018-03-04T12:31:26.602Z,94104.70
2018-03-04T12:33:54.942Z,94098.34
2018-03-04T12:36:23.403Z,94099.27
2018-03-04T12:38:51.746Z,94087.34
2018-03-04T12:41:20.099Z,94077.68
2018-03-04T12:43:50.146Z,94070.00
2018-03-04T12:46:18.495Z,94057.61
2018-03-04T12:48:47.900Z,94056.87
2018-03-04T12:51:16.234Z,94057.30
2018-03-04T12:53:44.570Z,94055.95
2018-03-04T12:56:12.979Z,94059.41
2018-03-04T12:58:41.295Z,94056.50
2018-03-04T13:01:09.746Z,94056.25
2018-03-04T13:03:38.135Z,94054.59
2018-03-04T13:06:06.534Z,94052.08
2018-03-04T13:08:34.882Z,94045.40
2018-03-04T13:11:03.337Z,94043.11
2018-03-04T13:13:31.686Z,94040.44
2018-03-04T13:16:00.790Z,94038.03
2018-03-04T13:18:29.202Z,94037.86
2018-03-04T13:20:57.539Z,94035.83
2018-03-04T13:23:25.900Z,94039.80
2018-03-04T19:38:35.633Z,93850.92
2018-03-04T19:41:10.647Z,93845.78
2018-03-04T19:43:39.020Z,93852.17
2018-03-04T19:46:08.142Z,93860.60
2018-03-04T19:48:36.482Z,93850.11
2018-03-04T19:51:04.804Z,93854.62
2018-03-04T19:53:33.181Z,93859.39
2018-03-04T19:56:01.455Z,93860.09
2018-03-04T19:58:32.889Z,93872.52
2018-03-04T20:01:01.387Z,93880.36
2018-03-04T20:03:33.250Z,93882.34
2018-03-04T20:06:01.597Z,93881.27
2018-03-04T20:08:29.970Z,93871.98
2018-03-04T20:10:58.336Z,93876.56
2018-03-04T20:13:26.680Z,93874.89
2018-03-04T20:15:55.042Z,93867.10
2018-03-04T20:18:23.405Z,93870.70
2018-03-04T20:20:51.744Z,93870.68
2018-03-04T20:23:29.480Z,93866.46
2018-03-04T20:25:57.823Z,93863.81
2018-03-04T20:28:28.293Z,93864.23
2018-03-04T20:30:57.316Z,93868.92
2018-03-04T20:33:25.647Z,93869.92
2018-03-04T20:35:53.971Z,93876.20
2018-03-04T20:38:22.332Z,93878.77
2018-03-04T20:40:50.716Z,93875.25
2018-03-04T20:43:22.538Z,93874.30
2018-03-04T20:45:50.908Z,93872.58
2018-03-04T20:48:19.328Z,93867.38
2018-03-04T20:50:47.689Z,93867.88
2018-03-04T20:53:16.010Z,93871.41
2018-03-04T20:58:26.329Z,93875.54
2018-03-04T21:00:54.741Z,93883.42
2018-03-04T21:03:23.064Z,93871.53
2018-03-04T21:05:51.492Z,93874.11
2018-03-04T21:08:19.861Z,93877.01
2018-03-04T21:10:48.174Z,93867.63
2018-03-04T21:13:16.622Z,93866.69
2018-03-04T21:15:45.019Z,93863.84
2018-03-04T21:18:13.360Z,93863.84
2018-03-04T21:20:41.684Z,93858.08
2018-03-04T21:23:12.370Z,93851.10
2018-03-04T21:25:46.867Z,93853.23
2018-03-04T21:28:19.160Z,93857.46
2018-03-04T21:30:47.484Z,93863.64
2018-03-04T21:33:20.166Z,93857.97
2018-03-04T21:35:48.507Z,93853.90
2018-03-04T21:38:16.880Z,93858.14
2018-03-04T21:40:45.272Z,93863.72
2018-03-04T21:43:14.399Z,93867.88
2018-03-04T21:45:42.739Z,93866.14
2018-03-04T21:48:11.168Z,93870.41
2018-03-04T21:50:39.528Z,93870.95
2018-03-04T21:53:07.994Z,93869.64
2018-03-04T21:55:36.317Z,93871.02
2018-03-04T21:58:05.376Z,93874.30
2018-03-04T22:00:33.723Z,93871.96
2018-03-04T22:03:03.420Z,93870.27
2018-03-04T22:05:31.784Z,93877.00
2018-03-04T22:08:00.308Z,93884.38
2018-03-04T22:10:28.648Z,93876.78
2018-03-04T22:12:56.971Z,93876.59
2018-03-04T22:15:25.426Z,93878.09
2018-03-04T22:17:53.756Z,93880.37
2018-03-04T22:20:22.170Z,93886.12
2018-03-04T22:22:52.813Z,93891.22
2018-03-04T22:25:21.155Z,93900.41
2018-03-04T22:27:52.887Z,93903.83
2018-03-04T22:30:28.114Z,93908.77
2018-03-04T22:32:57.708Z,93909.48
2018-03-04T22:35:26.049Z,93911.20
2018-03-04T22:37:55.211Z,93911.53
2018-03-04T22:40:23.607Z,93917.02
2018-03-04T22:42:51.926Z,93923.77
2018-03-04T22:45:20.347Z,93926.09
2018-03-04T22:47:54.542Z,93935.71
2018-03-04T22:50:23.758Z,93939.98
2018-03-04T22:52:53.956Z,93943.64
2018-03-04T22:55:22.318Z,93952.73
2018-03-04T22:57:53.482Z,93957.70
2018-03-04T23:00:21.953Z,93961.09
2018-03-04T23:02:50.486Z,93959.33
2018-03-04T23:05:18.902Z,93972.82
2018-03-04T23:07:47.228Z,93989.75
2018-03-04T23:10:21.345Z,93997.59
2018-03-04T23:12:49.653Z,94000.41
2018-03-04T23:15:18.011Z,94013.81
2018-03-04T23:17:46.336Z,94002.55
2018-03-04T23:20:18.249Z,93999.12
2018-03-04T23:22:46.655Z,94009.77
2018-03-04T23:25:14.988Z,94020.93
2018-03-04T23:27:44.334Z,94011.20
2018-03-04T23:30:12.734Z,94012.59
2018-03-04T23:32:41.113Z,94011.75
2018-03-04T23:35:09.450Z,94011.75
2018-03-04T23:37:37.872Z,94013.80
2018-03-04T23:40:06.191Z,94015.84
2018-03-04T23:42:34.609Z,94014.05
2018-03-04T23:45:02.989Z,94010.00
2018-03-04T23:47:31.387Z,94015.14
2018-03-04T23:49:59.911Z,94015.63
2018-03-04T23:52:28.263Z,94017.88
2018-03-04T23:54:56.592Z,94013.27
2018-03-04T23:57:24.931Z,94024.57
2018-03-04T23:59:53.254Z,94028.20
